sensor_id;sensor_type;location;lat;lon;timestamp;temperature;humidity
78345;DHT22;67620;51.134;6.548;2024-03-02T00:00:37;8.60;64.40
78345;DHT22;67620;51.134;6.548;2024-03-02T00:03:04;8.70;63.80
78345;DHT22;67620;51.134;6.548;2024-03-02T00:05:29;8.70;64.40
78345;DHT22;67620;51.134;6.548;2024-03-02T00:07:58;8.80;63.90
78345;DHT22;67620;51.134;6.548;2024-03-02T00:10:26;8.80;64.20
78345;DHT22;67620;51.134;6.548;2024-03-02T00:12:56;8.80;63.70
78345;DHT22;67620;51.134;6.548;2024-03-02T00:15:48;8.80;63.90
78345;DHT22;67620;51.134;6.548;2024-03-02T00:18:19;8.90;63.30
78345;DHT22;67620;51.134;6.548;2024-03-02T00:20:44;9.00;63.30
78345;DHT22;67620;51.134;6.548;2024-03-02T00:23:14;9.00;63.30
78345;DHT22;67620;51.134;6.548;2024-03-02T00:25:44;9.10;63.20
78345;DHT22;67620;51.134;6.548;2024-03-02T00:30:52;9.00;63.10
78345;DHT22;67620;51.134;6.548;2024-03-02T00:33:20;9.00;62.70
78345;DHT22;67620;51.134;6.548;2024-03-02T00:35:46;9.00;63.10
78345;DHT22;67620;51.134;6.548;2024-03-02T00:38:12;9.00;63.00
78345;DHT22;67620;51.134;6.548;2024-03-02T00:40:41;9.00;63.80
78345;DHT22;67620;51.134;6.548;2024-03-02T00:43:19;8.90;64.10
78345;DHT22;67620;51.134;6.548;2024-03-02T00:45:50;8.90;64.30
78345;DHT22;67620;51.134;6.548;2024-03-02T00:48:16;8.90;64.10
78345;DHT22;67620;51.134;6.548;2024-03-02T00:50:42;8.90;64.60
78345;DHT22;67620;51.134;6.548;2024-03-02T00:53:11;8.90;64.30
78345;DHT22;67620;51.134;6.548;2024-03-02T00:55:37;8.80;64.90
78345;DHT22;67620;51.134;6.548;2024-03-02T00:58:03;8.80;64.20
78345;DHT22;67620;51.134;6.548;2024-03-02T01:00:29;8.80;64.70
78345;DHT22;67620;51.134;6.548;2024-03-02T01:02:54;8.70;64.80
78345;DHT22;67620;51.134;6.548;2024-03-02T01:05:20;8.70;64.70
78345;DHT22;67620;51.134;6.548;2024-03-02T01:07:45;8.70;65.00
78345;DHT22;67620;51.134;6.548;2024-03-02T01:10:11;8.70;64.30
78345;DHT22;67620;51.134;6.548;2024-03-02T01:12:37;8.70;64.40
78345;DHT22;67620;51.134;6.548;2024-03-02T01:15:02;8.60;65.40
78345;DHT22;67620;51.134;6.548;2024-03-02T01:17:31;8.60;65.30
78345;DHT22;67620;51.134;6.548;2024-03-02T01:19:56;8.60;64.60
78345;DHT22;67620;51.134;6.548;2024-03-02T01:22:23;8.60;64.80
78345;DHT22;67620;51.134;6.548;2024-03-02T01:24:51;8.80;64.10
78345;DHT22;67620;51.134;6.548;2024-03-02T01:27:16;8.80;63.80
78345;DHT22;67620;51.134;6.548;2024-03-02T01:29:42;8.90;63.70
78345;DHT22;67620;51.134;6.548;2024-03-02T01:32:07;8.90;63.50
78345;DHT22;67620;51.134;6.548;2024-03-02T01:34:33;8.90;63.50
78345;DHT22;67620;51.134;6.548;2024-03-02T01:36:58;8.90;63.80
78345;DHT22;67620;51.134;6.548;2024-03-02T01:39:24;8.70;64.30
78345;DHT22;67620;51.134;6.548;2024-03-02T01:41:49;8.60;65.80
78345;DHT22;67620;51.134;6.548;2024-03-02T01:44:15;8.60;65.40
78345;DHT22;67620;51.134;6.548;2024-03-02T01:46:41;8.60;66.70
78345;DHT22;67620;51.134;6.548;2024-03-02T01:49:06;8.60;67.30
78345;DHT22;67620;51.134;6.548;2024-03-02T01:51:32;8.60;66.90
78345;DHT22;67620;51.134;6.548;2024-03-02T01:53:57;8.60;66.80
78345;DHT22;67620;51.134;6.548;2024-03-02T01:56:23;8.70;65.30
78345;DHT22;67620;51.134;6.548;2024-03-02T01:58:49;8.80;65.00
78345;DHT22;67620;51.134;6.548;2024-03-02T02:01:15;8.80;64.60
78345;DHT22;67620;51.134;6.548;2024-03-02T02:03:43;8.80;65.00
78345;DHT22;67620;51.134;6.548;2024-03-02T02:06:09;8.80;64.70
78345;DHT22;67620;51.134;6.548;2024-03-02T02:08:36;8.80;64.80
78345;DHT22;67620;51.134;6.548;2024-03-02T02:11:02;8.80;65.30
78345;DHT22;67620;51.134;6.548;2024-03-02T02:13:28;8.80;65.30
78345;DHT22;67620;51.134;6.548;2024-03-02T02:15:53;8.80;65.10
78345;DHT22;67620;51.134;6.548;2024-03-02T02:18:19;8.90;64.90
78345;DHT22;67620;51.134;6.548;2024-03-02T02:20:44;8.80;65.10
78345;DHT22;67620;51.134;6.548;2024-03-02T02:23:10;8.80;65.20
78345;DHT22;67620;51.134;6.548;2024-03-02T02:25:36;8.80;65.10
78345;DHT22;67620;51.134;6.548;2024-03-02T02:28:01;8.80;65.00
78345;DHT22;67620;51.134;6.548;2024-03-02T02:30:30;8.80;65.30
78345;DHT22;67620;51.134;6.548;2024-03-02T02:32:56;8.80;65.40
78345;DHT22;67620;51.134;6.548;2024-03-02T02:35:22;8.80;65.60
78345;DHT22;67620;51.134;6.548;2024-03-02T02:37:50;8.70;65.70
78345;DHT22;67620;51.134;6.548;2024-03-02T02:40:16;8.80;65.50
78345;DHT22;67620;51.134;6.548;2024-03-02T02:42:42;8.80;65.70
78345;DHT22;67620;51.134;6.548;2024-03-02T02:45:07;8.90;65.50
78345;DHT22;67620;51.134;6.548;2024-03-02T02:47:33;8.80;65.80
78345;DHT22;67620;51.134;6.548;2024-03-02T02:50:03;8.90;65.80
78345;DHT22;67620;51.134;6.548;2024-03-02T02:52:35;8.90;66.10
78345;DHT22;67620;51.134;6.548;2024-03-02T02:55:06;8.90;66.00
78345;DHT22;67620;51.134;6.548;2024-03-02T02:57:33;8.90;65.80
78345;DHT22;67620;51.134;6.548;2024-03-02T03:00:05;8.90;65.90
78345;DHT22;67620;51.134;6.548;2024-03-02T03:02:38;8.90;66.10
78345;DHT22;67620;51.134;6.548;2024-03-02T03:05:08;8.90;68.10
78345;DHT22;67620;51.134;6.548;2024-03-02T03:07:34;8.80;67.70
78345;DHT22;67620;51.134;6.548;2024-03-02T03:10:03;8.70;68.60
78345;DHT22;67620;51.134;6.548;2024-03-02T03:12:30;8.50;69.70
78345;DHT22;67620;51.134;6.548;2024-03-02T03:14:56;8.50;70.40
78345;DHT22;67620;51.134;6.548;2024-03-02T03:17:22;8.50;71.90
78345;DHT22;67620;51.134;6.548;2024-03-02T03:19:49;8.40;73.30
78345;DHT22;67620;51.134;6.548;2024-03-02T03:22:14;8.50;73.80
78345;DHT22;67620;51.134;6.548;2024-03-02T03:24:40;8.30;75.20
78345;DHT22;67620;51.134;6.548;2024-03-02T03:27:05;8.30;75.90
78345;DHT22;67620;51.134;6.548;2024-03-02T03:29:31;8.20;76.20
78345;DHT22;67620;51.134;6.548;2024-03-02T03:31:56;8.10;76.00
78345;DHT22;67620;51.134;6.548;2024-03-02T03:34:22;8.10;75.90
78345;DHT22;67620;51.134;6.548;2024-03-02T03:36:48;8.00;76.20
78345;DHT22;67620;51.134;6.548;2024-03-02T03:39:13;8.00;76.30
78345;DHT22;67620;51.134;6.548;2024-03-02T03:41:40;8.00;76.10
78345;DHT22;67620;51.134;6.548;2024-03-02T03:44:06;8.20;75.00
78345;DHT22;67620;51.134;6.548;2024-03-02T03:46:31;8.20;74.90
78345;DHT22;67620;51.134;6.548;2024-03-02T03:48:57;8.30;74.60
78345;DHT22;67620;51.134;6.548;2024-03-02T03:51:22;8.30;74.60
78345;DHT22;67620;51.134;6.548;2024-03-02T03:53:48;8.20;75.10
78345;DHT22;67620;51.134;6.548;2024-03-02T03:56:14;8.10;75.50
78345;DHT22;67620;51.134;6.548;2024-03-02T03:58:39;8.00;76.10
78345;DHT22;67620;51.134;6.548;2024-03-02T04:01:05;8.00;75.80
78345;DHT22;67620;51.134;6.548;2024-03-02T04:03:30;7.90;76.20
78345;DHT22;67620;51.134;6.548;2024-03-02T04:05:56;7.80;76.80
78345;DHT22;67620;51.134;6.548;2024-03-02T04:08:22;7.80;77.20
78345;DHT22;67620;51.134;6.548;2024-03-02T04:10:48;7.90;76.80
78345;DHT22;67620;51.134;6.548;2024-03-02T04:13:13;7.80;77.40
78345;DHT22;67620;51.134;6.548;2024-03-02T04:15:39;8.00;76.50
78345;DHT22;67620;51.134;6.548;2024-03-02T04:18:06;8.00;76.30
78345;DHT22;67620;51.134;6.548;2024-03-02T04:20:31;8.00;76.40
78345;DHT22;67620;51.134;6.548;2024-03-02T04:22:57;8.10;76.40
78345;DHT22;67620;51.134;6.548;2024-03-02T04:25:23;8.10;76.40
78345;DHT22;67620;51.134;6.548;2024-03-02T04:27:48;8.00;76.50
78345;DHT22;67620;51.134;6.548;2024-03-02T04:30:14;8.20;76.00
78345;DHT22;67620;51.134;6.548;2024-03-02T04:32:39;8.00;76.50
78345;DHT22;67620;51.134;6.548;2024-03-02T04:35:05;8.00;76.50
78345;DHT22;67620;51.134;6.548;2024-03-02T04:37:34;8.10;75.60
78345;DHT22;67620;51.134;6.548;2024-03-02T04:40:00;8.00;75.90
78345;DHT22;67620;51.134;6.548;2024-03-02T04:42:25;7.90;75.80
78345;DHT22;67620;51.134;6.548;2024-03-02T04:44:51;8.00;74.50
78345;DHT22;67620;51.134;6.548;2024-03-02T04:47:17;7.90;74.00
78345;DHT22;67620;51.134;6.548;2024-03-02T04:49:42;7.90;74.10
78345;DHT22;67620;51.134;6.548;2024-03-02T04:52:08;7.90;73.60
78345;DHT22;67620;51.134;6.548;2024-03-02T04:54:34;8.00;72.90
78345;DHT22;67620;51.134;6.548;2024-03-02T04:57:20;8.00;72.30
78345;DHT22;67620;51.134;6.548;2024-03-02T04:59:45;8.10;71.90
78345;DHT22;67620;51.134;6.548;2024-03-02T05:02:11;8.10;71.70
78345;DHT22;67620;51.134;6.548;2024-03-02T05:04:39;8.20;71.50
78345;DHT22;67620;51.134;6.548;2024-03-02T05:07:05;8.30;71.00
78345;DHT22;67620;51.134;6.548;2024-03-02T05:09:30;8.20;71.40
78345;DHT22;67620;51.134;6.548;2024-03-02T05:11:56;8.30;71.40
78345;DHT22;67620;51.134;6.548;2024-03-02T05:14:37;8.30;71.30
78345;DHT22;67620;51.134;6.548;2024-03-02T05:17:04;8.40;71.10
78345;DHT22;67620;51.134;6.548;2024-03-02T05:19:29;8.30;71.40
78345;DHT22;67620;51.134;6.548;2024-03-02T05:21:55;8.20;71.40
78345;DHT22;67620;51.134;6.548;2024-03-02T05:24:20;8.30;71.10
78345;DHT22;67620;51.134;6.548;2024-03-02T05:26:46;8.30;71.30
78345;DHT22;67620;51.134;6.548;2024-03-02T05:29:11;8.20;71.50
78345;DHT22;67620;51.134;6.548;2024-03-02T05:31:37;8.30;71.30
78345;DHT22;67620;51.134;6.548;2024-03-02T05:34:03;8.30;71.30
78345;DHT22;67620;51.134;6.548;2024-03-02T05:36:28;8.20;71.10
78345;DHT22;67620;51.134;6.548;2024-03-02T05:38:54;8.30;71.00
78345;DHT22;67620;51.134;6.548;2024-03-02T05:41:20;8.20;71.30
78345;DHT22;67620;51.134;6.548;2024-03-02T05:43:46;8.30;71.10
78345;DHT22;67620;51.134;6.548;2024-03-02T05:46:11;8.30;71.20
78345;DHT22;67620;51.134;6.548;2024-03-02T05:48:37;8.20;71.10
78345;DHT22;67620;51.134;6.548;2024-03-02T05:51:03;8.20;71.10
78345;DHT22;67620;51.134;6.548;2024-03-02T05:53:28;8.20;71.00
78345;DHT22;67620;51.134;6.548;2024-03-02T05:55:54;8.20;71.00
78345;DHT22;67620;51.134;6.548;2024-03-02T05:58:21;8.20;71.10
78345;DHT22;67620;51.134;6.548;2024-03-02T06:01:10;8.20;71.40
78345;DHT22;67620;51.134;6.548;2024-03-02T06:03:35;8.20;71.20
78345;DHT22;67620;51.134;6.548;2024-03-02T06:06:01;8.20;71.10
78345;DHT22;67620;51.134;6.548;2024-03-02T06:08:26;8.20;71.00
78345;DHT22;67620;51.134;6.548;2024-03-02T06:10:52;8.20;71.10
78345;DHT22;67620;51.134;6.548;2024-03-02T06:13:17;8.20;70.90
78345;DHT22;67620;51.134;6.548;2024-03-02T06:15:43;8.20;70.80
78345;DHT22;67620;51.134;6.548;2024-03-02T06:18:09;8.20;70.90
78345;DHT22;67620;51.134;6.548;2024-03-02T06:20:34;8.30;70.70
78345;DHT22;67620;51.134;6.548;2024-03-02T06:23:00;8.20;70.70
78345;DHT22;67620;51.134;6.548;2024-03-02T06:25:28;8.20;70.70
78345;DHT22;67620;51.134;6.548;2024-03-02T06:27:53;8.10;71.20
78345;DHT22;67620;51.134;6.548;2024-03-02T06:30:19;8.10;71.10
78345;DHT22;67620;51.134;6.548;2024-03-02T06:32:44;8.20;70.90
78345;DHT22;67620;51.134;6.548;2024-03-02T06:35:10;8.30;70.70
78345;DHT22;67620;51.134;6.548;2024-03-02T06:37:38;8.30;70.60
78345;DHT22;67620;51.134;6.548;2024-03-02T06:40:04;8.20;71.10
78345;DHT22;67620;51.134;6.548;2024-03-02T06:42:30;8.20;71.20
78345;DHT22;67620;51.134;6.548;2024-03-02T06:44:58;8.20;71.00
78345;DHT22;67620;51.134;6.548;2024-03-02T06:47:24;8.30;70.70
78345;DHT22;67620;51.134;6.548;2024-03-02T06:49:50;8.40;70.80
78345;DHT22;67620;51.134;6.548;2024-03-02T06:52:16;8.40;70.60
78345;DHT22;67620;51.134;6.548;2024-03-02T06:54:41;8.40;70.70
78345;DHT22;67620;51.134;6.548;2024-03-02T06:57:07;8.40;70.40
78345;DHT22;67620;51.134;6.548;2024-03-02T06:59:32;8.40;70.60
78345;DHT22;67620;51.134;6.548;2024-03-02T07:01:59;8.40;70.30
78345;DHT22;67620;51.134;6.548;2024-03-02T07:04:24;8.40;70.40
78345;DHT22;67620;51.134;6.548;2024-03-02T07:06:50;8.40;70.50
78345;DHT22;67620;51.134;6.548;2024-03-02T07:09:16;8.50;70.40
78345;DHT22;67620;51.134;6.548;2024-03-02T07:11:42;8.40;70.50
78345;DHT22;67620;51.134;6.548;2024-03-02T07:14:08;8.40;70.50
78345;DHT22;67620;51.134;6.548;2024-03-02T07:16:33;8.40;70.40
78345;DHT22;67620;51.134;6.548;2024-03-02T07:19:00;8.40;70.70
78345;DHT22;67620;51.134;6.548;2024-03-02T07:21:27;8.40;70.40
78345;DHT22;67620;51.134;6.548;2024-03-02T07:23:53;8.40;70.70
78345;DHT22;67620;51.134;6.548;2024-03-02T07:26:19;8.50;70.70
78345;DHT22;67620;51.134;6.548;2024-03-02T07:28:48;8.40;70.50
78345;DHT22;67620;51.134;6.548;2024-03-02T07:31:14;8.40;70.90
78345;DHT22;67620;51.134;6.548;2024-03-02T07:33:40;8.40;70.90
78345;DHT22;67620;51.134;6.548;2024-03-02T07:36:07;8.50;70.80
78345;DHT22;67620;51.134;6.548;2024-03-02T07:38:33;8.60;70.60
78345;DHT22;67620;51.134;6.548;2024-03-02T07:40:59;8.60;70.90
78345;DHT22;67620;51.134;6.548;2024-03-02T07:43:26;8.60;70.90
78345;DHT22;67620;51.134;6.548;2024-03-02T07:45:51;8.60;71.00
78345;DHT22;67620;51.134;6.548;2024-03-02T07:48:17;8.60;71.00
78345;DHT22;67620;51.134;6.548;2024-03-02T07:50:42;8.70;70.90
78345;DHT22;67620;51.134;6.548;2024-03-02T07:53:08;8.60;71.00
78345;DHT22;67620;51.134;6.548;2024-03-02T07:55:34;8.60;71.20
78345;DHT22;67620;51.134;6.548;2024-03-02T07:58:02;8.70;71.10
78345;DHT22;67620;51.134;6.548;2024-03-02T08:00:28;8.70;70.50
78345;DHT22;67620;51.134;6.548;2024-03-02T08:02:55;8.70;70.40
78345;DHT22;67620;51.134;6.548;2024-03-02T08:05:21;8.70;70.30
78345;DHT22;67620;51.134;6.548;2024-03-02T08:07:47;8.80;70.70
78345;DHT22;67620;51.134;6.548;2024-03-02T08:10:13;8.90;69.60
78345;DHT22;67620;51.134;6.548;2024-03-02T08:12:39;8.90;70.30
78345;DHT22;67620;51.134;6.548;2024-03-02T08:15:05;9.00;69.90
78345;DHT22;67620;51.134;6.548;2024-03-02T08:17:31;9.00;69.60
78345;DHT22;67620;51.134;6.548;2024-03-02T08:19:56;8.90;69.90
78345;DHT22;67620;51.134;6.548;2024-03-02T08:22:23;8.90;70.00
78345;DHT22;67620;51.134;6.548;2024-03-02T08:24:50;8.90;70.00
78345;DHT22;67620;51.134;6.548;2024-03-02T08:27:16;8.80;69.90
78345;DHT22;67620;51.134;6.548;2024-03-02T08:29:42;8.80;70.00
78345;DHT22;67620;51.134;6.548;2024-03-02T08:32:07;9.00;69.60
78345;DHT22;67620;51.134;6.548;2024-03-02T08:34:33;9.20;68.60
78345;DHT22;67620;51.134;6.548;2024-03-02T08:37:01;9.50;68.00
78345;DHT22;67620;51.134;6.548;2024-03-02T08:39:27;11.10;62.40
78345;DHT22;67620;51.134;6.548;2024-03-02T08:41:52;11.90;59.80
78345;DHT22;67620;51.134;6.548;2024-03-02T08:44:18;12.10;58.80
78345;DHT22;67620;51.134;6.548;2024-03-02T08:46:44;13.00;57.40
78345;DHT22;67620;51.134;6.548;2024-03-02T08:49:10;12.30;57.50
78345;DHT22;67620;51.134;6.548;2024-03-02T08:51:37;11.20;61.10
78345;DHT22;67620;51.134;6.548;2024-03-02T08:54:02;10.80;62.10
78345;DHT22;67620;51.134;6.548;2024-03-02T08:56:29;11.70;60.30
78345;DHT22;67620;51.134;6.548;2024-03-02T08:58:54;11.30;61.30
78345;DHT22;67620;51.134;6.548;2024-03-02T09:01:20;10.60;63.50
78345;DHT22;67620;51.134;6.548;2024-03-02T09:03:46;10.40;63.80
78345;DHT22;67620;51.134;6.548;2024-03-02T09:06:12;10.20;64.40
78345;DHT22;67620;51.134;6.548;2024-03-02T09:08:39;10.80;62.50
78345;DHT22;67620;51.134;6.548;2024-03-02T09:11:05;11.10;62.60
78345;DHT22;67620;51.134;6.548;2024-03-02T09:13:32;11.60;60.00
78345;DHT22;67620;51.134;6.548;2024-03-02T09:15:58;13.80;54.80
78345;DHT22;67620;51.134;6.548;2024-03-02T09:18:23;13.90;54.20
78345;DHT22;67620;51.134;6.548;2024-03-02T09:20:48;12.00;57.50
78345;DHT22;67620;51.134;6.548;2024-03-02T09:23:14;11.70;58.50
78345;DHT22;67620;51.134;6.548;2024-03-02T09:25:39;11.40;59.50
78345;DHT22;67620;51.134;6.548;2024-03-02T09:28:05;12.30;57.70
78345;DHT22;67620;51.134;6.548;2024-03-02T09:30:30;13.80;55.10
78345;DHT22;67620;51.134;6.548;2024-03-02T09:32:56;13.60;54.40
78345;DHT22;67620;51.134;6.548;2024-03-02T09:35:21;12.90;55.70
78345;DHT22;67620;51.134;6.548;2024-03-02T09:37:47;13.70;53.80
78345;DHT22;67620;51.134;6.548;2024-03-02T09:40:13;12.60;56.10
78345;DHT22;67620;51.134;6.548;2024-03-02T09:42:39;13.50;56.20
78345;DHT22;67620;51.134;6.548;2024-03-02T09:45:05;13.40;53.70
78345;DHT22;67620;51.134;6.548;2024-03-02T09:47:31;12.80;54.90
78345;DHT22;67620;51.134;6.548;2024-03-02T09:49:58;12.50;55.90
78345;DHT22;67620;51.134;6.548;2024-03-02T09:52:23;13.30;54.10
78345;DHT22;67620;51.134;6.548;2024-03-02T09:54:49;13.70;52.90
78345;DHT22;67620;51.134;6.548;2024-03-02T09:57:14;14.60;51.00
78345;DHT22;67620;51.134;6.548;2024-03-02T09:59:40;14.90;48.90
78345;DHT22;67620;51.134;6.548;2024-03-02T10:02:05;15.30;48.70
78345;DHT22;67620;51.134;6.548;2024-03-02T10:04:32;15.90;46.70
78345;DHT22;67620;51.134;6.548;2024-03-02T10:07:09;15.40;48.70
78345;DHT22;67620;51.134;6.548;2024-03-02T10:09:34;15.50;47.70
78345;DHT22;67620;51.134;6.548;2024-03-02T10:12:06;15.50;46.60
78345;DHT22;67620;51.134;6.548;2024-03-02T10:14:32;16.40;44.80
78345;DHT22;67620;51.134;6.548;2024-03-02T10:17:05;16.30;43.90
78345;DHT22;67620;51.134;6.548;2024-03-02T10:19:31;16.80;43.20
78345;DHT22;67620;51.134;6.548;2024-03-02T10:21:59;16.30;44.00
78345;DHT22;67620;51.134;6.548;2024-03-02T10:24:25;17.60;43.70
78345;DHT22;67620;51.134;6.548;2024-03-02T10:26:51;17.20;42.70
78345;DHT22;67620;51.134;6.548;2024-03-02T10:29:17;18.80;41.60
78345;DHT22;67620;51.134;6.548;2024-03-02T10:31:46;18.90;40.70
78345;DHT22;67620;51.134;6.548;2024-03-02T10:34:12;17.30;43.40
78345;DHT22;67620;51.134;6.548;2024-03-02T10:36:40;15.00;48.30
78345;DHT22;67620;51.134;6.548;2024-03-02T10:39:07;15.00;48.90
78345;DHT22;67620;51.134;6.548;2024-03-02T10:41:34;16.00;46.90
78345;DHT22;67620;51.134;6.548;2024-03-02T10:44:04;16.70;46.40
78345;DHT22;67620;51.134;6.548;2024-03-02T10:46:30;17.70;43.30
78345;DHT22;67620;51.134;6.548;2024-03-02T10:48:59;18.80;42.50
78345;DHT22;67620;51.134;6.548;2024-03-02T10:51:28;19.30;41.00
78345;DHT22;67620;51.134;6.548;2024-03-02T10:54:00;18.30;42.60
78345;DHT22;67620;51.134;6.548;2024-03-02T10:56:32;19.40;40.50
78345;DHT22;67620;51.134;6.548;2024-03-02T10:59:02;20.90;37.60
78345;DHT22;67620;51.134;6.548;2024-03-02T11:01:28;20.20;39.80
78345;DHT22;67620;51.134;6.548;2024-03-02T11:03:54;20.00;39.00
78345;DHT22;67620;51.134;6.548;2024-03-02T11:06:22;20.30;39.50
78345;DHT22;67620;51.134;6.548;2024-03-02T11:08:48;20.20;38.50
78345;DHT22;67620;51.134;6.548;2024-03-02T11:11:18;21.80;37.30
78345;DHT22;67620;51.134;6.548;2024-03-02T11:13:49;22.40;37.10
78345;DHT22;67620;51.134;6.548;2024-03-02T11:16:27;22.30;35.70
78345;DHT22;67620;51.134;6.548;2024-03-02T11:18:55;20.50;38.00
78345;DHT22;67620;51.134;6.548;2024-03-02T11:21:21;17.90;42.80
78345;DHT22;67620;51.134;6.548;2024-03-02T11:23:48;17.10;45.00
78345;DHT22;67620;51.134;6.548;2024-03-02T11:26:17;16.50;45.90
78345;DHT22;67620;51.134;6.548;2024-03-02T11:28:43;16.20;47.50
78345;DHT22;67620;51.134;6.548;2024-03-02T11:31:08;16.50;47.30
78345;DHT22;67620;51.134;6.548;2024-03-02T11:33:34;15.70;48.80
78345;DHT22;67620;51.134;6.548;2024-03-02T11:35:59;15.60;50.10
78345;DHT22;67620;51.134;6.548;2024-03-02T11:38:28;15.60;50.60
78345;DHT22;67620;51.134;6.548;2024-03-02T11:40:53;15.60;49.10
78345;DHT22;67620;51.134;6.548;2024-03-02T11:43:19;15.60;48.80
78345;DHT22;67620;51.134;6.548;2024-03-02T11:45:45;15.50;48.60
78345;DHT22;67620;51.134;6.548;2024-03-02T11:48:14;15.20;49.70
78345;DHT22;67620;51.134;6.548;2024-03-02T11:50:49;15.40;51.10
78345;DHT22;67620;51.134;6.548;2024-03-02T11:53:15;15.40;49.20
78345;DHT22;67620;51.134;6.548;2024-03-02T11:55:41;15.00;49.70
78345;DHT22;67620;51.134;6.548;2024-03-02T11:58:07;14.90;50.70
78345;DHT22;67620;51.134;6.548;2024-03-02T12:00:33;14.80;51.10
78345;DHT22;67620;51.134;6.548;2024-03-02T12:02:59;14.60;51.60
78345;DHT22;67620;51.134;6.548;2024-03-02T12:05:26;14.10;52.10
78345;DHT22;67620;51.134;6.548;2024-03-02T12:08:03;14.00;51.50
78345;DHT22;67620;51.134;6.548;2024-03-02T12:10:30;13.80;52.70
78345;DHT22;67620;51.134;6.548;2024-03-02T12:13:04;13.80;53.00
78345;DHT22;67620;51.134;6.548;2024-03-02T12:15:33;13.60;52.30
78345;DHT22;67620;51.134;6.548;2024-03-02T12:18:00;13.70;52.80
78345;DHT22;67620;51.134;6.548;2024-03-02T12:20:28;13.90;53.90
78345;DHT22;67620;51.134;6.548;2024-03-02T12:22:57;13.60;54.10
78345;DHT22;67620;51.134;6.548;2024-03-02T12:25:23;13.60;54.20
78345;DHT22;67620;51.134;6.548;2024-03-02T12:27:51;13.80;53.80
78345;DHT22;67620;51.134;6.548;2024-03-02T12:30:17;13.90;54.40
78345;DHT22;67620;51.134;6.548;2024-03-02T12:32:47;14.00;54.10
78345;DHT22;67620;51.134;6.548;2024-03-02T12:35:13;14.00;54.20
78345;DHT22;67620;51.134;6.548;2024-03-02T12:37:43;14.00;54.50
78345;DHT22;67620;51.134;6.548;2024-03-02T12:40:11;13.90;54.50
78345;DHT22;67620;51.134;6.548;2024-03-02T12:42:38;14.10;54.00
78345;DHT22;67620;51.134;6.548;2024-03-02T12:45:04;13.80;54.60
78345;DHT22;67620;51.134;6.548;2024-03-02T12:47:29;13.60;55.30
78345;DHT22;67620;51.134;6.548;2024-03-02T12:49:55;13.90;54.90
78345;DHT22;67620;51.134;6.548;2024-03-02T12:52:21;14.20;56.10
78345;DHT22;67620;51.134;6.548;2024-03-02T12:54:47;14.20;54.70
78345;DHT22;67620;51.134;6.548;2024-03-02T12:57:17;13.90;54.30
78345;DHT22;67620;51.134;6.548;2024-03-02T12:59:45;13.90;55.10
78345;DHT22;67620;51.134;6.548;2024-03-02T13:02:17;13.80;55.20
78345;DHT22;67620;51.134;6.548;2024-03-02T13:04:43;13.50;56.10
78345;DHT22;67620;51.134;6.548;2024-03-02T13:07:08;13.50;55.20
78345;DHT22;67620;51.134;6.548;2024-03-02T13:09:35;13.30;55.80
78345;DHT22;67620;51.134;6.548;2024-03-02T13:12:01;13.30;55.00
78345;DHT22;67620;51.134;6.548;2024-03-02T13:14:26;13.50;55.50
78345;DHT22;67620;51.134;6.548;2024-03-02T13:16:52;13.60;55.60
78345;DHT22;67620;51.134;6.548;2024-03-02T13:19:18;13.40;55.40
78345;DHT22;67620;51.134;6.548;2024-03-02T13:21:46;13.30;56.10
78345;DHT22;67620;51.134;6.548;2024-03-02T13:24:12;13.50;55.00
78345;DHT22;67620;51.134;6.548;2024-03-02T13:26:37;13.60;54.60
78345;DHT22;67620;51.134;6.548;2024-03-02T13:29:03;13.70;56.00
78345;DHT22;67620;51.134;6.548;2024-03-02T13:31:29;13.50;55.60
78345;DHT22;67620;51.134;6.548;2024-03-02T13:33:54;13.40;56.10
78345;DHT22;67620;51.134;6.548;2024-03-02T13:36:20;13.50;55.00
78345;DHT22;67620;51.134;6.548;2024-03-02T13:38:45;13.60;55.90
78345;DHT22;67620;51.134;6.548;2024-03-02T13:41:11;13.50;54.80
78345;DHT22;67620;51.134;6.548;2024-03-02T13:43:37;13.70;54.60
78345;DHT22;67620;51.134;6.548;2024-03-02T13:46:04;13.70;55.10
78345;DHT22;67620;51.134;6.548;2024-03-02T13:48:29;13.60;55.50
78345;DHT22;67620;51.134;6.548;2024-03-02T13:50:56;13.70;55.90
78345;DHT22;67620;51.134;6.548;2024-03-02T13:53:21;13.70;55.70
78345;DHT22;67620;51.134;6.548;2024-03-02T13:55:47;13.90;57.00
78345;DHT22;67620;51.134;6.548;2024-03-02T13:58:13;13.70;57.80
78345;DHT22;67620;51.134;6.548;2024-03-02T14:00:39;13.90;57.30
78345;DHT22;67620;51.134;6.548;2024-03-02T14:03:06;13.90;58.00
78345;DHT22;67620;51.134;6.548;2024-03-02T14:05:32;14.10;58.70
78345;DHT22;67620;51.134;6.548;2024-03-02T14:07:57;14.40;58.40
78345;DHT22;67620;51.134;6.548;2024-03-02T14:10:25;14.60;57.50
78345;DHT22;67620;51.134;6.548;2024-03-02T14:12:50;14.30;56.20
78345;DHT22;67620;51.134;6.548;2024-03-02T14:15:16;14.30;56.90
78345;DHT22;67620;51.134;6.548;2024-03-02T14:17:42;14.30;57.60
78345;DHT22;67620;51.134;6.548;2024-03-02T14:20:08;14.40;56.10
78345;DHT22;67620;51.134;6.548;2024-03-02T14:22:36;14.40;56.40
78345;DHT22;67620;51.134;6.548;2024-03-02T14:25:03;14.50;56.60
78345;DHT22;67620;51.134;6.548;2024-03-02T14:27:29;14.60;57.30
78345;DHT22;67620;51.134;6.548;2024-03-02T14:29:54;14.50;55.90
78345;DHT22;67620;51.134;6.548;2024-03-02T14:32:20;14.40;56.50
78345;DHT22;67620;51.134;6.548;2024-03-02T14:34:45;14.40;57.50
78345;DHT22;67620;51.134;6.548;2024-03-02T14:37:13;14.50;57.00
78345;DHT22;67620;51.134;6.548;2024-03-02T14:39:39;14.60;57.40
78345;DHT22;67620;51.134;6.548;2024-03-02T14:42:05;14.70;56.50
78345;DHT22;67620;51.134;6.548;2024-03-02T14:44:30;14.70;55.60
78345;DHT22;67620;51.134;6.548;2024-03-02T14:46:56;14.70;55.70
78345;DHT22;67620;51.134;6.548;2024-03-02T14:49:24;14.60;57.50
78345;DHT22;67620;51.134;6.548;2024-03-02T14:51:50;14.70;55.10
78345;DHT22;67620;51.134;6.548;2024-03-02T14:54:15;14.60;55.40
78345;DHT22;67620;51.134;6.548;2024-03-02T14:56:41;14.40;55.60
78345;DHT22;67620;51.134;6.548;2024-03-02T14:59:06;14.40;56.40
78345;DHT22;67620;51.134;6.548;2024-03-02T15:01:32;14.30;56.30
78345;DHT22;67620;51.134;6.548;2024-03-02T15:03:58;14.30;56.60
78345;DHT22;67620;51.134;6.548;2024-03-02T15:06:23;14.30;56.60
78345;DHT22;67620;51.134;6.548;2024-03-02T15:08:49;14.40;57.00
78345;DHT22;67620;51.134;6.548;2024-03-02T15:11:15;14.30;56.50
78345;DHT22;67620;51.134;6.548;2024-03-02T15:13:40;14.20;56.70
78345;DHT22;67620;51.134;6.548;2024-03-02T15:16:07;14.20;57.10
78345;DHT22;67620;51.134;6.548;2024-03-02T15:18:32;14.10;57.50
78345;DHT22;67620;51.134;6.548;2024-03-02T15:21:00;14.20;56.50
78345;DHT22;67620;51.134;6.548;2024-03-02T15:23:25;14.10;55.90
78345;DHT22;67620;51.134;6.548;2024-03-02T15:25:51;14.10;57.00
78345;DHT22;67620;51.134;6.548;2024-03-02T15:28:16;13.90;56.40
78345;DHT22;67620;51.134;6.548;2024-03-02T15:30:42;13.80;56.40
78345;DHT22;67620;51.134;6.548;2024-03-02T15:33:07;13.90;58.00
78345;DHT22;67620;51.134;6.548;2024-03-02T15:35:33;13.80;57.50
78345;DHT22;67620;51.134;6.548;2024-03-02T15:37:59;13.80;56.80